KIAH/IAH METAR and TAF weather

Enter ICAO airport designator
Station Type Date Time Source
KIAH METAR 2021/09/27 07:53 UTC NOAA

KIAH 270753Z 11003KT 10SM FEW045 BKN250 20/18 A3002 RMK AO2 SLP166 T02000178


Station Type Date Time Source
KIAH Decoded METAR 2021/09/27 07:53 UTC NOAA

HOUSTON INTERCONTINENTAL, TX, United States (KIAH) 30-00N 095-22W 36M
Sep 27, 2021 - 03:53 AM EDT / 2021.09.27 0753 UTC
Wind: from the ESE (110 degrees) at 3 MPH (3 KT):0
Visibility: 10 mile(s):0
Sky conditions: mostly cloudy
Temperature: 68.0 F (20.0 C)
Dew Point: 64.0 F (17.8 C)
Relative Humidity: 87%
Pressure (altimeter): 30.02 in. Hg (1016 hPa)
ob: KIAH 270753Z 11003KT 10SM FEW045 BKN250 20/18 A3002 RMK AO2 SLP166 T02000178
cycle: 8

Station Type Date Time Source
KIAH TAF 2021/09/27 06:22 UTC NOAA

TAF KIAH 270520Z 2706/2812 13004KT P6SM SCT250
FM271400 11006KT P6SM SCT025 SCT250
FM271900 13008KT P6SM VCSH BKN040 BKN250
FM272300 13010KT P6SM SCT040 SCT250
FM280900 15006KT P6SM BKN025

Example: see airport list